sensor_id;sensor_type;location;lat;lon;timestamp;pressure;altitude;pressure_sealevel;temperature;humidity
15694;BME280;7947;48.834;9.132;2024-03-22T00:00:10;98895.88;;;10.70;80.25
15694;BME280;7947;48.834;9.132;2024-03-22T00:03:14;98899.34;;;10.66;79.50
15694;BME280;7947;48.834;9.132;2024-03-22T00:06:17;98900.91;;;10.62;79.59
15694;BME280;7947;48.834;9.132;2024-03-22T00:09:19;98890.06;;;10.47;80.75
15694;BME280;7947;48.834;9.132;2024-03-22T00:12:23;98885.19;;;10.44;81.97
15694;BME280;7947;48.834;9.132;2024-03-22T00:15:25;98885.75;;;10.46;79.27
15694;BME280;7947;48.834;9.132;2024-03-22T00:18:29;98881.91;;;10.37;79.56
15694;BME280;7947;48.834;9.132;2024-03-22T00:21:32;98873.06;;;10.36;79.05
15694;BME280;7947;48.834;9.132;2024-03-22T00:24:35;98870.13;;;10.38;78.54
15694;BME280;7947;48.834;9.132;2024-03-22T00:27:37;98865.28;;;10.35;77.55
15694;BME280;7947;48.834;9.132;2024-03-22T00:30:40;98867.13;;;10.29;76.76
15694;BME280;7947;48.834;9.132;2024-03-22T00:33:43;98871.06;;;10.22;76.99
15694;BME280;7947;48.834;9.132;2024-03-22T00:36:46;98863.03;;;10.22;77.79
15694;BME280;7947;48.834;9.132;2024-03-22T00:39:48;98858.69;;;10.16;77.44
15694;BME280;7947;48.834;9.132;2024-03-22T00:42:51;98866.31;;;10.07;77.91
15694;BME280;7947;48.834;9.132;2024-03-22T00:45:53;98861.63;;;9.92;78.99
15694;BME280;7947;48.834;9.132;2024-03-22T00:48:58;98854.63;;;9.91;78.32
15694;BME280;7947;48.834;9.132;2024-03-22T00:52:01;98853.19;;;9.79;78.76
15694;BME280;7947;48.834;9.132;2024-03-22T00:55:04;98846.75;;;9.80;79.04
15694;BME280;7947;48.834;9.132;2024-03-22T00:58:07;98840.28;;;9.76;78.43
15694;BME280;7947;48.834;9.132;2024-03-22T01:01:09;98841.41;;;9.58;78.83
15694;BME280;7947;48.834;9.132;2024-03-22T01:04:14;98835.75;;;9.55;78.12
15694;BME280;7947;48.834;9.132;2024-03-22T01:07:18;98831.78;;;9.57;77.17
15694;BME280;7947;48.834;9.132;2024-03-22T01:10:20;98823.69;;;9.52;78.16
15694;BME280;7947;48.834;9.132;2024-03-22T01:13:23;98819.44;;;9.56;77.95
15694;BME280;7947;48.834;9.132;2024-03-22T01:16:26;98821.69;;;9.43;77.70
15694;BME280;7947;48.834;9.132;2024-03-22T01:19:30;98820.47;;;9.29;78.69
15694;BME280;7947;48.834;9.132;2024-03-22T01:22:33;98819.97;;;9.32;77.72
15694;BME280;7947;48.834;9.132;2024-03-22T01:25:35;98812.00;;;9.37;77.98
15694;BME280;7947;48.834;9.132;2024-03-22T01:28:38;98806.09;;;9.35;77.63
15694;BME280;7947;48.834;9.132;2024-03-22T01:31:40;98811.50;;;9.40;77.17
15694;BME280;7947;48.834;9.132;2024-03-22T01:34:45;98811.63;;;9.28;77.34
15694;BME280;7947;48.834;9.132;2024-03-22T01:37:47;98819.94;;;9.10;78.35
15694;BME280;7947;48.834;9.132;2024-03-22T01:40:50;98817.63;;;9.14;78.08
15694;BME280;7947;48.834;9.132;2024-03-22T01:43:52;98817.06;;;9.12;78.11
15694;BME280;7947;48.834;9.132;2024-03-22T01:46:56;98827.34;;;9.03;78.76
15694;BME280;7947;48.834;9.132;2024-03-22T01:50:01;98806.69;;;8.98;78.05
15694;BME280;7947;48.834;9.132;2024-03-22T01:53:04;98813.28;;;8.91;77.74
15694;BME280;7947;48.834;9.132;2024-03-22T01:56:08;98804.06;;;8.82;78.14
15694;BME280;7947;48.834;9.132;2024-03-22T01:59:10;98798.56;;;8.72;78.40
15694;BME280;7947;48.834;9.132;2024-03-22T02:02:13;98807.47;;;8.77;77.80
15694;BME280;7947;48.834;9.132;2024-03-22T02:05:19;98795.91;;;8.72;77.63
15694;BME280;7947;48.834;9.132;2024-03-22T02:08:23;98781.59;;;8.61;78.41
15694;BME280;7947;48.834;9.132;2024-03-22T02:11:26;98773.88;;;8.65;78.18
15694;BME280;7947;48.834;9.132;2024-03-22T02:14:28;98773.50;;;8.56;78.00
15694;BME280;7947;48.834;9.132;2024-03-22T02:17:32;98769.78;;;8.57;77.92
15694;BME280;7947;48.834;9.132;2024-03-22T02:20:35;98776.06;;;8.68;77.40
15694;BME280;7947;48.834;9.132;2024-03-22T02:23:41;98771.44;;;8.63;77.88
15694;BME280;7947;48.834;9.132;2024-03-22T02:26:43;98768.41;;;8.55;78.83
15694;BME280;7947;48.834;9.132;2024-03-22T02:29:46;98762.88;;;8.61;78.46
15694;BME280;7947;48.834;9.132;2024-03-22T02:32:49;98760.44;;;8.60;79.28
15694;BME280;7947;48.834;9.132;2024-03-22T02:35:52;98761.97;;;8.56;80.26
15694;BME280;7947;48.834;9.132;2024-03-22T02:38:55;98766.28;;;8.57;80.20
15694;BME280;7947;48.834;9.132;2024-03-22T02:41:58;98757.38;;;8.51;80.96
15694;BME280;7947;48.834;9.132;2024-03-22T02:45:01;98756.63;;;8.56;81.54
15694;BME280;7947;48.834;9.132;2024-03-22T02:48:04;98753.66;;;8.52;80.42
15694;BME280;7947;48.834;9.132;2024-03-22T02:51:06;98742.91;;;8.47;81.39
15694;BME280;7947;48.834;9.132;2024-03-22T02:54:11;98739.47;;;8.52;82.09
15694;BME280;7947;48.834;9.132;2024-03-22T02:57:14;98739.31;;;8.58;82.88
15694;BME280;7947;48.834;9.132;2024-03-22T03:00:17;98737.81;;;8.67;81.87
15694;BME280;7947;48.834;9.132;2024-03-22T03:03:20;98739.44;;;8.68;81.86
15694;BME280;7947;48.834;9.132;2024-03-22T03:06:23;98741.81;;;8.65;81.89
15694;BME280;7947;48.834;9.132;2024-03-22T03:09:28;98734.41;;;8.72;82.57
15694;BME280;7947;48.834;9.132;2024-03-22T03:12:30;98730.31;;;8.86;83.16
15694;BME280;7947;48.834;9.132;2024-03-22T03:15:32;98730.88;;;8.88;82.58
15694;BME280;7947;48.834;9.132;2024-03-22T03:18:35;98729.94;;;8.77;82.88
15694;BME280;7947;48.834;9.132;2024-03-22T03:21:38;98723.97;;;8.70;83.61
15694;BME280;7947;48.834;9.132;2024-03-22T03:24:41;98725.81;;;8.70;83.61
15694;BME280;7947;48.834;9.132;2024-03-22T03:27:44;98722.66;;;8.73;83.20
15694;BME280;7947;48.834;9.132;2024-03-22T03:30:48;98723.72;;;8.72;83.47
15694;BME280;7947;48.834;9.132;2024-03-22T03:33:51;98722.34;;;8.69;82.90
15694;BME280;7947;48.834;9.132;2024-03-22T03:36:53;98720.97;;;8.67;82.90
15694;BME280;7947;48.834;9.132;2024-03-22T03:39:58;98716.75;;;8.71;82.79
15694;BME280;7947;48.834;9.132;2024-03-22T03:43:01;98714.88;;;8.71;82.28
15694;BME280;7947;48.834;9.132;2024-03-22T03:46:03;98716.50;;;8.72;82.09
15694;BME280;7947;48.834;9.132;2024-03-22T03:49:07;98716.00;;;8.75;82.18
15694;BME280;7947;48.834;9.132;2024-03-22T03:52:09;98709.22;;;8.68;82.72
15694;BME280;7947;48.834;9.132;2024-03-22T03:55:14;98708.09;;;8.64;82.17
15694;BME280;7947;48.834;9.132;2024-03-22T03:58:16;98705.94;;;8.61;82.07
15694;BME280;7947;48.834;9.132;2024-03-22T04:01:19;98704.28;;;8.60;82.16
15694;BME280;7947;48.834;9.132;2024-03-22T04:04:21;98709.16;;;8.63;82.12
15694;BME280;7947;48.834;9.132;2024-03-22T04:07:24;98711.03;;;8.62;81.85
15694;BME280;7947;48.834;9.132;2024-03-22T04:10:30;98703.00;;;8.62;81.70
15694;BME280;7947;48.834;9.132;2024-03-22T04:13:33;98701.16;;;8.63;81.42
15694;BME280;7947;48.834;9.132;2024-03-22T04:16:35;98702.44;;;8.60;81.18
15694;BME280;7947;48.834;9.132;2024-03-22T04:19:38;98700.19;;;8.52;81.26
15694;BME280;7947;48.834;9.132;2024-03-22T04:22:39;98703.94;;;8.51;81.99
15694;BME280;7947;48.834;9.132;2024-03-22T04:25:51;98702.56;;;8.49;82.31
15694;BME280;7947;48.834;9.132;2024-03-22T04:28:52;98699.56;;;8.45;82.83
15694;BME280;7947;48.834;9.132;2024-03-22T04:31:54;98695.81;;;8.46;83.44
15694;BME280;7947;48.834;9.132;2024-03-22T04:34:54;98706.09;;;8.54;84.15
15694;BME280;7947;48.834;9.132;2024-03-22T04:37:56;98705.28;;;8.54;84.43
15694;BME280;7947;48.834;9.132;2024-03-22T04:40:59;98705.69;;;8.62;84.76
15694;BME280;7947;48.834;9.132;2024-03-22T04:44:01;98715.84;;;8.65;85.28
15694;BME280;7947;48.834;9.132;2024-03-22T04:47:03;98712.28;;;8.76;85.62
15694;BME280;7947;48.834;9.132;2024-03-22T04:50:06;98706.41;;;8.79;85.47
15694;BME280;7947;48.834;9.132;2024-03-22T04:53:08;98713.03;;;8.93;85.31
15694;BME280;7947;48.834;9.132;2024-03-22T04:56:11;98714.31;;;8.91;85.24
15694;BME280;7947;48.834;9.132;2024-03-22T04:59:12;98709.78;;;8.91;85.56
15694;BME280;7947;48.834;9.132;2024-03-22T05:02:14;98707.97;;;8.97;85.06
15694;BME280;7947;48.834;9.132;2024-03-22T05:05:14;98707.16;;;8.96;85.63
15694;BME280;7947;48.834;9.132;2024-03-22T05:08:16;98716.88;;;9.02;85.52
15694;BME280;7947;48.834;9.132;2024-03-22T05:11:19;98711.69;;;9.18;85.50
15694;BME280;7947;48.834;9.132;2024-03-22T05:14:21;98705.28;;;9.19;84.87
15694;BME280;7947;48.834;9.132;2024-03-22T05:17:22;98701.44;;;9.09;84.65
15694;BME280;7947;48.834;9.132;2024-03-22T05:20:24;98702.44;;;9.03;84.88
15694;BME280;7947;48.834;9.132;2024-03-22T05:23:25;98701.38;;;9.04;85.06
15694;BME280;7947;48.834;9.132;2024-03-22T05:26:28;98697.31;;;9.02;85.53
15694;BME280;7947;48.834;9.132;2024-03-22T05:29:32;98695.28;;;9.09;85.53
15694;BME280;7947;48.834;9.132;2024-03-22T05:32:34;98693.22;;;9.16;85.20
15694;BME280;7947;48.834;9.132;2024-03-22T05:35:36;98681.09;;;9.08;85.09
15694;BME280;7947;48.834;9.132;2024-03-22T05:38:37;98688.41;;;9.18;85.14
15694;BME280;7947;48.834;9.132;2024-03-22T05:41:40;98687.38;;;9.19;85.17
15694;BME280;7947;48.834;9.132;2024-03-22T05:44:42;98687.91;;;9.21;85.75
15694;BME280;7947;48.834;9.132;2024-03-22T05:47:43;98674.63;;;9.31;85.56
15694;BME280;7947;48.834;9.132;2024-03-22T05:50:45;98668.97;;;9.28;85.70
15694;BME280;7947;48.834;9.132;2024-03-22T05:53:45;98668.78;;;9.34;85.69
15694;BME280;7947;48.834;9.132;2024-03-22T05:56:49;98670.38;;;9.35;85.96
15694;BME280;7947;48.834;9.132;2024-03-22T05:59:49;98665.59;;;9.37;85.65
15694;BME280;7947;48.834;9.132;2024-03-22T06:02:51;98663.16;;;9.36;85.87
15694;BME280;7947;48.834;9.132;2024-03-22T06:05:53;98660.50;;;9.36;86.05
15694;BME280;7947;48.834;9.132;2024-03-22T06:08:57;98656.22;;;9.35;86.02
15694;BME280;7947;48.834;9.132;2024-03-22T06:12:02;98656.78;;;9.37;86.46
15694;BME280;7947;48.834;9.132;2024-03-22T06:15:04;98661.34;;;9.41;86.55
15694;BME280;7947;48.834;9.132;2024-03-22T06:18:08;98658.22;;;9.49;86.02
15694;BME280;7947;48.834;9.132;2024-03-22T06:21:10;98655.56;;;9.54;86.00
15694;BME280;7947;48.834;9.132;2024-03-22T06:24:16;98660.25;;;9.69;85.66
15694;BME280;7947;48.834;9.132;2024-03-22T06:27:20;98659.22;;;9.75;85.63
15694;BME280;7947;48.834;9.132;2024-03-22T06:30:24;98651.56;;;9.88;85.52
15694;BME280;7947;48.834;9.132;2024-03-22T06:33:26;98657.84;;;10.04;85.86
15694;BME280;7947;48.834;9.132;2024-03-22T06:36:31;98649.66;;;10.21;85.70
15694;BME280;7947;48.834;9.132;2024-03-22T06:39:34;98656.75;;;10.42;85.62
15694;BME280;7947;48.834;9.132;2024-03-22T06:42:38;98651.75;;;10.60;85.00
15694;BME280;7947;48.834;9.132;2024-03-22T06:45:41;98646.19;;;10.82;84.39
15694;BME280;7947;48.834;9.132;2024-03-22T06:48:44;98640.88;;;11.02;84.14
15694;BME280;7947;48.834;9.132;2024-03-22T06:51:47;98639.03;;;11.23;83.59
15694;BME280;7947;48.834;9.132;2024-03-22T06:54:50;98636.41;;;11.38;82.20
15694;BME280;7947;48.834;9.132;2024-03-22T06:57:55;98634.00;;;11.71;81.30
15694;BME280;7947;48.834;9.132;2024-03-22T07:00:58;98638.81;;;11.95;78.70
15694;BME280;7947;48.834;9.132;2024-03-22T07:04:01;98632.06;;;12.22;78.21
15694;BME280;7947;48.834;9.132;2024-03-22T07:07:04;98637.94;;;12.34;77.32
15694;BME280;7947;48.834;9.132;2024-03-22T07:10:06;98627.09;;;12.59;77.36
15694;BME280;7947;48.834;9.132;2024-03-22T07:13:11;98624.28;;;14.01;71.11
15694;BME280;7947;48.834;9.132;2024-03-22T07:16:14;98624.81;;;15.34;65.75
15694;BME280;7947;48.834;9.132;2024-03-22T07:19:25;98619.16;;;16.60;59.65
15694;BME280;7947;48.834;9.132;2024-03-22T07:22:28;98618.13;;;17.98;55.69
15694;BME280;7947;48.834;9.132;2024-03-22T07:25:30;98615.00;;;18.75;51.73
15694;BME280;7947;48.834;9.132;2024-03-22T07:28:33;98610.78;;;19.34;50.10
15694;BME280;7947;48.834;9.132;2024-03-22T07:31:34;98604.34;;;19.04;50.31
15694;BME280;7947;48.834;9.132;2024-03-22T07:34:35;98609.16;;;18.20;51.79
15694;BME280;7947;48.834;9.132;2024-03-22T07:37:37;98601.00;;;17.09;55.15
15694;BME280;7947;48.834;9.132;2024-03-22T07:40:39;98600.66;;;16.35;57.98
15694;BME280;7947;48.834;9.132;2024-03-22T07:43:42;98598.19;;;15.79;60.05
15694;BME280;7947;48.834;9.132;2024-03-22T07:46:44;98604.38;;;15.28;61.39
15694;BME280;7947;48.834;9.132;2024-03-22T07:49:45;98603.19;;;14.97;62.63
15694;BME280;7947;48.834;9.132;2024-03-22T07:52:47;98601.13;;;14.71;64.16
15694;BME280;7947;48.834;9.132;2024-03-22T07:55:47;98601.66;;;14.49;64.30
15694;BME280;7947;48.834;9.132;2024-03-22T07:58:50;98605.63;;;14.33;64.35
15694;BME280;7947;48.834;9.132;2024-03-22T08:01:51;98601.44;;;14.17;64.43
15694;BME280;7947;48.834;9.132;2024-03-22T08:04:53;98607.13;;;14.15;65.38
15694;BME280;7947;48.834;9.132;2024-03-22T08:07:55;98600.69;;;14.11;66.41
15694;BME280;7947;48.834;9.132;2024-03-22T08:10:56;98597.44;;;14.14;67.40
15694;BME280;7947;48.834;9.132;2024-03-22T08:13:59;98602.53;;;14.16;67.20
15694;BME280;7947;48.834;9.132;2024-03-22T08:17:03;98593.03;;;14.23;67.41
15694;BME280;7947;48.834;9.132;2024-03-22T08:20:06;98586.44;;;14.34;67.16
15694;BME280;7947;48.834;9.132;2024-03-22T08:23:08;98584.88;;;14.52;67.63
15694;BME280;7947;48.834;9.132;2024-03-22T08:26:09;98575.81;;;14.67;65.81
15694;BME280;7947;48.834;9.132;2024-03-22T08:29:12;98568.53;;;14.86;65.37
15694;BME280;7947;48.834;9.132;2024-03-22T08:32:13;98572.31;;;15.03;64.91
15694;BME280;7947;48.834;9.132;2024-03-22T08:35:15;98561.94;;;15.29;62.40
15694;BME280;7947;48.834;9.132;2024-03-22T08:38:16;98577.13;;;15.44;61.05
15694;BME280;7947;48.834;9.132;2024-03-22T08:41:18;98566.66;;;15.56;61.51
15694;BME280;7947;48.834;9.132;2024-03-22T08:44:20;98556.78;;;15.65;61.37
15694;BME280;7947;48.834;9.132;2024-03-22T08:47:22;98558.81;;;15.73;59.90
15694;BME280;7947;48.834;9.132;2024-03-22T08:50:24;98554.59;;;15.80;60.56
15694;BME280;7947;48.834;9.132;2024-03-22T08:53:26;98555.81;;;15.88;61.43
15694;BME280;7947;48.834;9.132;2024-03-22T08:56:27;98555.44;;;15.94;61.16
15694;BME280;7947;48.834;9.132;2024-03-22T08:59:30;98543.19;;;15.97;60.85
15694;BME280;7947;48.834;9.132;2024-03-22T09:02:30;98554.75;;;16.02;61.76
15694;BME280;7947;48.834;9.132;2024-03-22T09:05:32;98544.81;;;16.11;62.46
15694;BME280;7947;48.834;9.132;2024-03-22T09:08:33;98544.84;;;16.25;60.95
15694;BME280;7947;48.834;9.132;2024-03-22T09:11:35;98535.91;;;16.38;59.01
15694;BME280;7947;48.834;9.132;2024-03-22T09:14:37;98537.41;;;16.58;56.48
15694;BME280;7947;48.834;9.132;2024-03-22T09:17:39;98527.47;;;16.67;56.35
15694;BME280;7947;48.834;9.132;2024-03-22T09:20:40;98526.84;;;16.83;56.74
15694;BME280;7947;48.834;9.132;2024-03-22T09:23:42;98525.06;;;17.01;54.95
15694;BME280;7947;48.834;9.132;2024-03-22T09:26:44;98528.81;;;17.13;56.17
15694;BME280;7947;48.834;9.132;2024-03-22T09:29:48;98523.97;;;17.46;53.07
15694;BME280;7947;48.834;9.132;2024-03-22T09:32:50;98526.19;;;17.66;52.59
15694;BME280;7947;48.834;9.132;2024-03-22T09:35:52;98517.72;;;17.90;50.72
15694;BME280;7947;48.834;9.132;2024-03-22T09:38:54;98513.31;;;18.11;49.94
15694;BME280;7947;48.834;9.132;2024-03-22T09:41:56;98501.88;;;18.23;48.32
15694;BME280;7947;48.834;9.132;2024-03-22T09:45:00;98511.94;;;18.31;49.04
15694;BME280;7947;48.834;9.132;2024-03-22T09:48:02;98503.66;;;18.36;48.93
15694;BME280;7947;48.834;9.132;2024-03-22T09:51:04;98494.69;;;18.35;48.58
15694;BME280;7947;48.834;9.132;2024-03-22T09:54:06;98491.25;;;18.52;48.22
15694;BME280;7947;48.834;9.132;2024-03-22T09:57:10;98476.22;;;18.54;48.14
15694;BME280;7947;48.834;9.132;2024-03-22T10:00:15;98479.28;;;18.70;50.26
15694;BME280;7947;48.834;9.132;2024-03-22T10:03:19;98472.91;;;18.66;50.79
15694;BME280;7947;48.834;9.132;2024-03-22T10:06:21;98466.03;;;18.60;51.50
15694;BME280;7947;48.834;9.132;2024-03-22T10:09:28;98461.69;;;18.59;50.06
15694;BME280;7947;48.834;9.132;2024-03-22T10:12:30;98467.28;;;18.45;49.01
15694;BME280;7947;48.834;9.132;2024-03-22T10:15:33;98459.56;;;18.30;49.74
15694;BME280;7947;48.834;9.132;2024-03-22T10:18:34;98458.91;;;18.25;51.30
15694;BME280;7947;48.834;9.132;2024-03-22T10:21:36;98453.19;;;18.35;52.85
15694;BME280;7947;48.834;9.132;2024-03-22T10:24:36;98452.13;;;18.61;52.57
15694;BME280;7947;48.834;9.132;2024-03-22T10:27:38;98445.41;;;18.84;48.42
15694;BME280;7947;48.834;9.132;2024-03-22T10:30:41;98433.75;;;18.92;47.92
15694;BME280;7947;48.834;9.132;2024-03-22T10:33:45;98422.84;;;19.10;47.09
15694;BME280;7947;48.834;9.132;2024-03-22T10:36:47;98424.91;;;19.21;46.99
15694;BME280;7947;48.834;9.132;2024-03-22T10:39:50;98416.72;;;19.30;48.08
15694;BME280;7947;48.834;9.132;2024-03-22T10:42:53;98409.03;;;19.32;47.35
15694;BME280;7947;48.834;9.132;2024-03-22T10:46:01;98415.94;;;19.21;48.27
15694;BME280;7947;48.834;9.132;2024-03-22T10:49:05;98403.66;;;19.06;49.51
15694;BME280;7947;48.834;9.132;2024-03-22T10:52:09;98401.75;;;18.98;47.81
15694;BME280;7947;48.834;9.132;2024-03-22T10:55:16;98398.22;;;18.98;48.73
15694;BME280;7947;48.834;9.132;2024-03-22T10:58:21;98391.22;;;18.88;48.67
15694;BME280;7947;48.834;9.132;2024-03-22T11:01:26;98380.97;;;19.02;50.25
15694;BME280;7947;48.834;9.132;2024-03-22T11:04:30;98379.19;;;19.06;49.95
15694;BME280;7947;48.834;9.132;2024-03-22T11:07:32;98385.59;;;19.10;49.00
15694;BME280;7947;48.834;9.132;2024-03-22T11:10:34;98379.09;;;19.32;49.22
15694;BME280;7947;48.834;9.132;2024-03-22T11:13:36;98374.59;;;19.53;49.81
15694;BME280;7947;48.834;9.132;2024-03-22T11:16:38;98372.75;;;19.74;48.19
15694;BME280;7947;48.834;9.132;2024-03-22T11:19:40;98370.31;;;19.72;45.39
15694;BME280;7947;48.834;9.132;2024-03-22T11:22:41;98359.88;;;19.83;47.94
15694;BME280;7947;48.834;9.132;2024-03-22T11:25:42;98355.09;;;19.80;47.70
15694;BME280;7947;48.834;9.132;2024-03-22T11:28:43;98352.19;;;20.06;46.14
15694;BME280;7947;48.834;9.132;2024-03-22T11:31:46;98351.66;;;20.21;43.49
15694;BME280;7947;48.834;9.132;2024-03-22T11:34:47;98332.97;;;20.31;45.56
15694;BME280;7947;48.834;9.132;2024-03-22T11:37:50;98330.59;;;20.30;43.26
15694;BME280;7947;48.834;9.132;2024-03-22T11:40:51;98314.38;;;20.33;42.26
15694;BME280;7947;48.834;9.132;2024-03-22T11:43:53;98320.81;;;20.29;42.50
15694;BME280;7947;48.834;9.132;2024-03-22T11:46:57;98308.47;;;20.31;42.13
15694;BME280;7947;48.834;9.132;2024-03-22T11:49:57;98305.97;;;20.18;43.13
15694;BME280;7947;48.834;9.132;2024-03-22T11:52:59;98301.53;;;20.13;43.10
15694;BME280;7947;48.834;9.132;2024-03-22T11:56:02;98301.38;;;20.18;43.94
15694;BME280;7947;48.834;9.132;2024-03-22T11:59:04;98296.84;;;20.22;43.73
15694;BME280;7947;48.834;9.132;2024-03-22T12:02:08;98294.16;;;20.34;43.77
15694;BME280;7947;48.834;9.132;2024-03-22T12:05:10;98282.09;;;20.23;45.22
15694;BME280;7947;48.834;9.132;2024-03-22T12:08:12;98284.41;;;20.13;44.61
15694;BME280;7947;48.834;9.132;2024-03-22T12:11:14;98271.25;;;19.94;44.64
15694;BME280;7947;48.834;9.132;2024-03-22T12:14:15;98265.88;;;19.86;46.02
15694;BME280;7947;48.834;9.132;2024-03-22T12:17:18;98248.31;;;19.74;44.78
15694;BME280;7947;48.834;9.132;2024-03-22T12:20:20;98254.78;;;19.70;45.46
15694;BME280;7947;48.834;9.132;2024-03-22T12:23:23;98243.94;;;19.61;46.06
15694;BME280;7947;48.834;9.132;2024-03-22T12:26:26;98240.50;;;19.52;43.93
15694;BME280;7947;48.834;9.132;2024-03-22T12:29:29;98231.59;;;19.43;45.05
15694;BME280;7947;48.834;9.132;2024-03-22T12:32:35;98224.88;;;19.41;44.90
15694;BME280;7947;48.834;9.132;2024-03-22T12:35:39;98211.63;;;19.39;45.97
15694;BME280;7947;48.834;9.132;2024-03-22T12:38:42;98201.97;;;19.42;45.01
15694;BME280;7947;48.834;9.132;2024-03-22T12:41:45;98205.38;;;19.39;44.98
15694;BME280;7947;48.834;9.132;2024-03-22T12:44:49;98196.41;;;19.38;45.86
15694;BME280;7947;48.834;9.132;2024-03-22T12:47:52;98184.09;;;19.41;46.90
15694;BME280;7947;48.834;9.132;2024-03-22T12:50:56;98184.69;;;19.46;44.31
15694;BME280;7947;48.834;9.132;2024-03-22T12:53:59;98179.72;;;19.48;42.50
15694;BME280;7947;48.834;9.132;2024-03-22T12:57:01;98175.78;;;19.37;44.07
15694;BME280;7947;48.834;9.132;2024-03-22T13:00:07;98169.69;;;19.32;46.13
15694;BME280;7947;48.834;9.132;2024-03-22T13:03:15;98174.34;;;19.31;46.35
15694;BME280;7947;48.834;9.132;2024-03-22T13:06:19;98162.84;;;19.34;44.05
15694;BME280;7947;48.834;9.132;2024-03-22T13:09:21;98161.88;;;19.30;45.02
15694;BME280;7947;48.834;9.132;2024-03-22T13:12:24;98158.56;;;19.25;45.20
15694;BME280;7947;48.834;9.132;2024-03-22T13:15:29;98155.56;;;19.18;46.61
15694;BME280;7947;48.834;9.132;2024-03-22T13:18:34;98152.84;;;19.18;45.92
15694;BME280;7947;48.834;9.132;2024-03-22T13:21:38;98136.41;;;19.14;46.64
15694;BME280;7947;48.834;9.132;2024-03-22T13:24:40;98136.31;;;19.02;46.52
15694;BME280;7947;48.834;9.132;2024-03-22T13:27:44;98132.00;;;19.01;47.02
15694;BME280;7947;48.834;9.132;2024-03-22T13:30:46;98125.91;;;19.04;45.29
15694;BME280;7947;48.834;9.132;2024-03-22T13:33:51;98125.56;;;19.06;46.18
15694;BME280;7947;48.834;9.132;2024-03-22T13:36:54;98120.59;;;19.08;45.64
15694;BME280;7947;48.834;9.132;2024-03-22T13:39:57;98119.63;;;19.12;44.77
15694;BME280;7947;48.834;9.132;2024-03-22T13:43:00;98111.25;;;19.17;45.09
15694;BME280;7947;48.834;9.132;2024-03-22T13:46:04;98104.69;;;19.18;44.30
15694;BME280;7947;48.834;9.132;2024-03-22T13:49:13;98098.13;;;19.19;45.57
15694;BME280;7947;48.834;9.132;2024-03-22T13:52:17;98097.28;;;19.27;45.19
15694;BME280;7947;48.834;9.132;2024-03-22T13:55:22;98103.66;;;19.31;45.46
15694;BME280;7947;48.834;9.132;2024-03-22T13:58:25;98099.19;;;19.27;46.64
15694;BME280;7947;48.834;9.132;2024-03-22T14:01:28;98096.22;;;19.20;48.27
15694;BME280;7947;48.834;9.132;2024-03-22T14:04:32;98090.03;;;19.11;47.67
15694;BME280;7947;48.834;9.132;2024-03-22T14:07:36;98083.53;;;19.03;47.48
15694;BME280;7947;48.834;9.132;2024-03-22T14:10:42;98077.16;;;18.99;46.73
15694;BME280;7947;48.834;9.132;2024-03-22T14:13:45;98076.78;;;18.88;45.50
15694;BME280;7947;48.834;9.132;2024-03-22T14:16:49;98078.78;;;18.71;45.59
15694;BME280;7947;48.834;9.132;2024-03-22T14:19:53;98064.47;;;18.62;44.46
15694;BME280;7947;48.834;9.132;2024-03-22T14:22:58;98065.09;;;18.59;43.71
15694;BME280;7947;48.834;9.132;2024-03-22T14:26:00;98062.28;;;18.47;43.35
15694;BME280;7947;48.834;9.132;2024-03-22T14:29:06;98052.09;;;18.44;43.11
15694;BME280;7947;48.834;9.132;2024-03-22T14:32:08;98052.69;;;18.41;43.36
15694;BME280;7947;48.834;9.132;2024-03-22T14:35:13;98047.94;;;18.38;43.92
15694;BME280;7947;48.834;9.132;2024-03-22T14:38:16;98039.94;;;18.41;42.26
15694;BME280;7947;48.834;9.132;2024-03-22T14:41:18;98032.25;;;18.52;43.26
15694;BME280;7947;48.834;9.132;2024-03-22T14:44:21;98037.22;;;18.50;43.64
15694;BME280;7947;48.834;9.132;2024-03-22T14:47:24;98026.81;;;18.52;41.91
15694;BME280;7947;48.834;9.132;2024-03-22T14:50:28;98030.97;;;18.49;42.54
15694;BME280;7947;48.834;9.132;2024-03-22T14:53:31;98032.59;;;18.42;43.33
15694;BME280;7947;48.834;9.132;2024-03-22T14:56:34;98024.47;;;18.33;42.33
15694;BME280;7947;48.834;9.132;2024-03-22T14:59:36;98016.19;;;18.30;43.13
15694;BME280;7947;48.834;9.132;2024-03-22T15:02:39;98010.13;;;18.33;42.85
15694;BME280;7947;48.834;9.132;2024-03-22T15:05:42;98014.94;;;18.27;43.58
15694;BME280;7947;48.834;9.132;2024-03-22T15:08:45;98007.44;;;18.24;43.37
15694;BME280;7947;48.834;9.132;2024-03-22T15:11:47;97998.78;;;18.31;41.83
15694;BME280;7947;48.834;9.132;2024-03-22T15:14:52;97990.06;;;18.17;42.92
15694;BME280;7947;48.834;9.132;2024-03-22T15:17:55;97998.06;;;18.13;44.65
15694;BME280;7947;48.834;9.132;2024-03-22T15:20:59;97987.38;;;18.08;45.71
15694;BME280;7947;48.834;9.132;2024-03-22T15:24:02;97979.41;;;18.12;44.47
15694;BME280;7947;48.834;9.132;2024-03-22T15:27:05;97976.53;;;18.08;43.52
15694;BME280;7947;48.834;9.132;2024-03-22T15:30:09;97975.78;;;17.99;44.50
15694;BME280;7947;48.834;9.132;2024-03-22T15:33:11;97979.00;;;17.92;44.82
15694;BME280;7947;48.834;9.132;2024-03-22T15:36:17;97975.53;;;17.83;44.65
15694;BME280;7947;48.834;9.132;2024-03-22T15:39:19;97973.78;;;17.79;46.31
15694;BME280;7947;48.834;9.132;2024-03-22T15:42:22;97961.34;;;17.86;44.60
15694;BME280;7947;48.834;9.132;2024-03-22T15:45:24;97949.22;;;17.75;45.45
15694;BME280;7947;48.834;9.132;2024-03-22T15:48:27;97955.81;;;17.66;46.18
15694;BME280;7947;48.834;9.132;2024-03-22T15:51:32;97954.84;;;17.62;47.05
15694;BME280;7947;48.834;9.132;2024-03-22T15:54:35;97950.91;;;17.59;45.95
15694;BME280;7947;48.834;9.132;2024-03-22T15:57:37;97950.44;;;17.49;47.14
15694;BME280;7947;48.834;9.132;2024-03-22T16:00:41;97947.41;;;17.42;48.59
15694;BME280;7947;48.834;9.132;2024-03-22T16:03:43;97947.88;;;17.35;48.46
15694;BME280;7947;48.834;9.132;2024-03-22T16:06:49;97946.63;;;17.33;48.73
15694;BME280;7947;48.834;9.132;2024-03-22T16:09:52;97936.44;;;17.30;48.54
15694;BME280;7947;48.834;9.132;2024-03-22T16:12:55;97928.47;;;17.25;49.98
15694;BME280;7947;48.834;9.132;2024-03-22T16:15:59;97930.38;;;17.24;50.37
15694;BME280;7947;48.834;9.132;2024-03-22T16:19:03;97927.81;;;17.19;49.98
15694;BME280;7947;48.834;9.132;2024-03-22T16:22:06;97933.56;;;17.26;49.83
15694;BME280;7947;48.834;9.132;2024-03-22T16:25:10;97931.63;;;17.27;50.91